• Join FlightAware (Why Join?)
  • Login
  • US Flag 
06:24AM EDT


 

Airport Tracker/Info


-or-


 

Live Flight TrackerFlight Track Log ✈ UPS2844 ✈ 21-Feb-2014 ✈ KSDF - KSLC

Flight Track Log - Related Links

Times and Time Zones

All times are in EST time to prevent confusion due to time zone crossing. See the UPS2844 flight status page for this flight to view local times or setup timezone preferences in your user account.

Time Position Orientation Groundspeed Altitude Reporting Facility
EST Latitude Longitude Course Direction KTS MPH feet Rate Location/Type
04:24PM 38.1836 -85.8603 270° West 228 262 5,100  Level Indianapolis Center
04:26PM 38.1528 -85.9314 241° Southwest 235 270 8,500 2,400 Climbing Indianapolis Center
04:27PM 38.1361 -86.0133 256° West 245 282 10,100 2,160 Climbing Indianapolis Center
04:28PM 38.1594 -86.1131 287° West 283 326 13,000 3,660 Climbing Indianapolis Center
04:29PM 38.1634 -85.7378 186° South  Level FlightAware Approximate
04:29PM 38.1789 -86.2389 281° West 296 341 17,700  Level Indianapolis Center
04:30PM 38.1883 -85.8508 270° West  Level Estimated
04:30PM 38.1975 -86.3436 283° West 297 342 20,900  Level Indianapolis Center
04:31PM 38.2178 -86.4531 283° West 310 357 24,000 2,700 Climbing Indianapolis Center
04:32PM 38.2372 -86.5642 283° West 316 364 26,500 2,220 Climbing Indianapolis Center
04:33PM 38.2581 -86.6781 283° West 322 371 28,600 2,100 Climbing Indianapolis Center
04:34PM 38.2783 -86.7964 282° West 333 383 30,900 1,860 Climbing Indianapolis Center
04:35PM 38.2994 -86.9147 283° West 339 390 32,500 1,740 Climbing Indianapolis Center
04:36PM 38.3242 -87.0581 282° West 340 391 34,600 1,380 Climbing Indianapolis Center
04:37PM 38.3450 -87.1775 283° West 341 392 35,400 660 Climbing Indianapolis Center
04:38PM 38.3647 -87.2939 282° West 352 405 36,000 240 Climbing Indianapolis Center
04:39PM 38.3858 -87.4194 282° West 358 412 36,000  Level Indianapolis Center
04:40PM 38.4117 -87.5722 282° West 361 415 36,000  Level Indianapolis Center
04:41PM 38.4325 -87.6983 282° West 362 417 36,000  Level Indianapolis Center
04:42PM 38.4533 -87.8258 282° West 362 417 36,000  Level Indianapolis Center
04:43PM 38.4750 -87.9542 282° West 365 420 36,000  Level Indianapolis Center
04:44PM 38.4958 -88.0828 282° West 366 421 36,000  Level Indianapolis Center
04:45PM 38.5164 -88.2144 281° West 371 427 36,000  Level Kansas City Center
04:46PM 38.5369 -88.3433 282° West 371 427 36,000  Level Kansas City Center
04:47PM 38.5597 -88.4875 281° West 376 433 36,000 60 Level Kansas City Center
04:48PM 38.5822 -88.6308 281° West 374 430 36,200 480 Climbing Kansas City Center
04:49PM 38.6039 -88.7569 282° West 377 434 37,000 720 Climbing Kansas City Center
04:50PM 38.6206 -88.8753 280° West 369 425 37,800 480 Climbing Kansas City Center
04:51PM 38.6458 -89.0303 282° West 373 429 38,000 60 Climbing Kansas City Center
04:52PM 38.6667 -89.1622 281° West 377 434 38,000  Level Kansas City Center
04:53PM 38.6867 -89.2942 281° West 377 434 38,000  Level Kansas City Center
04:54PM 38.7061 -89.4269 281° West 377 434 38,000  Level Kansas City Center
04:55PM 38.7264 -89.5594 281° West 379 436 38,000  Level Kansas City Center
04:57PM 38.7461 -89.6931 281° West 381 438 38,000  Level Kansas City Center
04:58PM 38.7700 -89.8528 281° West 381 438 38,000  Level Kansas City Center
04:59PM 38.8008 -89.9831 287° West 384 442 38,000  Level Kansas City Center
05:00PM 38.8386 -90.1028 292° West 387 445 38,000  Level Kansas City Center
05:01PM 38.8861 -90.2561 292° West 387 445 38,000  Level Kansas City Center
05:02PM 38.9242 -90.3831 291° West 385 443 38,000  Level Kansas City Center
05:03PM 38.9628 -90.5094 291° West 383 441 38,000  Level Kansas City Center
05:04PM 39.0036 -90.6328 293° West 382 440 38,000  Level Kansas City Center
05:05PM 39.0331 -90.7597 287° West 379 436 38,000  Level Kansas City Center
05:06PM 39.0508 -90.8881 280° West 373 429 38,000  Level Kansas City Center
05:07PM 39.0689 -91.0192 280° West 372 428 38,000  Level Kansas City Center
05:08PM 39.0906 -91.1775 280° West 372 428 38,000  Level Kansas City Center
05:09PM 39.1078 -91.3086 280° West 373 429 38,000  Level Kansas City Center
05:10PM 39.1247 -91.4422 279° West 373 429 38,000  Level Kansas City Center
05:11PM 39.1425 -91.5756 280° West 376 433 38,000  Level Kansas City Center
05:12PM 39.1606 -91.7203 279° West 383 441 38,000  Level Kansas City Center
05:13PM 39.1783 -91.8575 280° West 384 442 38,000  Level Kansas City Center
05:14PM 39.1986 -92.0211 279° West 384 442 38,000  Level Kansas City Center
05:15PM 39.2156 -92.1572 279° West 384 442 38,000  Level Kansas City Center
05:16PM 39.2325 -92.2942 279° West 385 443 38,000  Level Kansas City Center
05:17PM 39.2486 -92.4303 279° West 385 443 38,000  Level Kansas City Center
05:18PM 39.2656 -92.5739 279° West 385 443 38,000  Level Kansas City Center
05:19PM 39.2817 -92.7083 279° West 384 442 38,000  Level Kansas City Center
05:20PM 39.2972 -92.8433 279° West 384 442 38,000  Level Kansas City Center
05:21PM 39.3136 -92.9792 279° West 384 442 38,000  Level Kansas City Center
05:22PM 39.3294 -93.1164 279° West 384 442 38,000  Level Kansas City Center
05:23PM 39.3486 -93.2878 278° West 397 457 38,000  Level Kansas City Center
05:24PM 39.3639 -93.4333 278° West 404 465 38,000  Level Kansas City Center
05:26PM 39.3819 -93.5797 279° West 411 473 38,000  Level Kansas City Center
05:27PM 39.3967 -93.7217 278° West 407 468 38,000  Level Kansas City Center
05:28PM 39.4150 -93.8836 278° West 399 459 38,000  Level Kansas City Center
05:29PM 39.4292 -94.0164 278° West 393 452 38,000  Level Kansas City Center
05:30PM 39.4456 -94.1706 278° West 389 448 38,000  Level Kansas City Center
05:31PM 39.4594 -94.3000 278° West 387 445 38,000  Level Kansas City Center
05:32PM 39.4753 -94.4519 278° West 385 443 38,000  Level Kansas City Center
05:33PM 39.4878 -94.5811 277° West 382 440 38,000  Level Kansas City Center
05:34PM 39.5031 -94.7308 278° West 380 437 38,000  Level Kansas City Center
05:35PM 39.5161 -94.8589 278° West 379 436 38,000  Level Kansas City Center
05:36PM 39.5300 -95.0092 277° West 379 436 38,000  Level Kansas City Center
05:37PM 39.5436 -95.1375 278° West 379 436 38,000  Level Kansas City Center
05:38PM 39.5578 -95.2889 277° West 380 437 38,000  Level Kansas City Center
05:39PM 39.5711 -95.4203 278° West 382 440 38,000  Level Kansas City Center
05:40PM 39.5850 -95.5728 277° West 383 441 38,000  Level Kansas City Center
05:41PM 39.5975 -95.7050 277° West 385 443 38,000  Level Kansas City Center
05:42PM 39.6114 -95.8594 277° West 385 443 38,000  Level Kansas City Center
05:43PM 39.6233 -95.9917 277° West 386 444 38,000  Level Kansas City Center
05:44PM 39.6364 -96.1444 276° West 385 443 38,000  Level Kansas City Center
05:45PM 39.6475 -96.2764 276° West 385 443 38,000  Level Kansas City Center
05:46PM 39.6614 -96.4283 277° West 384 442 38,000  Level Kansas City Center
05:47PM 39.6728 -96.5594 276° West 383 441 38,000  Level Kansas City Center
05:48PM 39.6850 -96.7133 276° West 383 441 38,000  Level Kansas City Center
05:49PM 39.6958 -96.8444 276° West 383 441 38,000  Level Kansas City Center
05:50PM 39.7064 -96.9925 275° West 382 440 38,000  Level Kansas City Center
05:51PM 39.7181 -97.1286 276° West 381 438 38,000  Level Kansas City Center
05:52PM 39.7269 -97.2597 275° West 380 437 38,000  Level Kansas City Center
05:53PM 39.7361 -97.3961 275° West 380 437 38,000  Level Kansas City Center
05:56PM 39.7644 -97.7222 277° West 378 435 38,000  Level Minneapolis Center
05:57PM 39.7744 -97.8586 275° West 378 435 38,000  Level Minneapolis Center
05:58PM 39.7842 -97.9950 275° West 381 438 38,000  Level Minneapolis Center
05:59PM 39.7942 -98.1331 275° West 383 441 38,000  Level Minneapolis Center
06:00PM 39.8036 -98.2717 275° West 383 441 38,000  Level Minneapolis Center
06:01PM 39.8131 -98.4094 275° West 383 441 38,000  Level Minneapolis Center
06:02PM 39.8244 -98.5756 275° West 383 441 38,000  Level Minneapolis Center
06:03PM 39.8336 -98.7169 275° West 384 442 38,000  Level Minneapolis Center
06:04PM 39.8425 -98.8531 275° West 384 442 38,000  Level Minneapolis Center
06:05PM 39.8514 -98.9917 275° West 383 441 38,000  Level Minneapolis Center
06:06PM 39.8600 -99.1300 275° West 383 441 38,000  Level Minneapolis Center
06:07PM 39.8683 -99.2686 275° West 382 440 38,000  Level Minneapolis Center
06:08PM 39.8767 -99.4069 275° West 383 441 38,000  Level Minneapolis Center
06:09PM 39.8850 -99.5456 275° West 383 441 38,000  Level Minneapolis Center
06:10PM 39.8928 -99.6844 274° West 384 442 38,000  Level Minneapolis Center
06:11PM 39.9022 -99.8517 274° West 386 444 38,000  Level Minneapolis Center
06:12PM 39.9097 -99.9914 274° West 386 444 38,000  Level Minneapolis Center
06:13PM 39.9175 -100.1308 274° West 385 443 38,000  Level Minneapolis Center
06:14PM 39.9247 -100.2731 274° West 384 442 38,000  Level Minneapolis Center
06:15PM 39.9317 -100.4089 274° West 383 441 38,000  Level Minneapolis Center
06:17PM 39.9408 -100.5997 274° West 386 444 38,000  Level Denver Center
06:18PM 39.9486 -100.7514 274° West 378 435 38,000  Level Denver Center
06:19PM 39.9547 -100.8831 274° West 379 436 38,000  Level Denver Center
06:20PM 39.9606 -101.0139 273° West 378 435 38,000  Level Denver Center
06:21PM 39.9678 -101.1683 274° West 380 437 38,000  Level Denver Center
06:22PM 39.9731 -101.3014 273° West 383 441 38,000  Level Denver Center
06:23PM 39.9789 -101.4600 273° West 390 449 38,000  Level Denver Center
06:24PM 39.9856 -101.5953 274° West 391 450 38,000  Level Denver Center
06:25PM 39.9914 -101.7553 273° West 395 455 38,000  Level Denver Center
06:26PM 39.9967 -101.8928 273° West 396 456 38,000  Level Denver Center
06:27PM 40.0022 -102.0303 273° West 396 456 38,000  Level Denver Center
06:28PM 40.0078 -102.1911 273° West 397 457 38,000  Level Denver Center
06:29PM 40.0119 -102.3067 273° West 398 458 38,000  Level Denver Center
06:30PM 40.0169 -102.4903 272° West 398 458 38,000  Level Denver Center
06:31PM 40.0219 -102.6281 273° West 397 457 38,000  Level Denver Center
06:32PM 40.0267 -102.7728 272° West 401 461 38,000  Level Denver Center
06:33PM 40.0306 -102.9167 272° West 398 458 38,000  Level Denver Center
06:34PM 40.0350 -103.0889 272° West 397 457 38,000  Level Denver Center
06:35PM 40.0389 -103.2322 272° West 396 456 38,000  Level Denver Center
06:36PM 40.0436 -103.3736 273° West 393 452 38,000  Level Denver Center
06:37PM 40.0461 -103.5147 271° West 392 451 38,000  Level Denver Center
06:38PM 40.0489 -103.6544 272° West 388 447 38,000  Level Denver Center
06:39PM 40.0536 -103.8211 272° West 385 443 38,000  Level Denver Center
06:40PM 40.0564 -103.9600 272° West 385 443 38,000  Level Denver Center
06:41PM 40.0586 -104.0997 271° West 388 447 38,000  Level Denver Center
06:42PM 40.0611 -104.2400 271° West 388 447 38,000  Level Denver Center
06:43PM 40.0639 -104.3792 272° West 388 447 38,000  Level Denver Center
06:44PM 40.0656 -104.5203 271° West 391 450 38,000  Level Denver Center
06:46PM 40.0689 -104.6908 272° West 395 455 38,000  Level Denver Center
06:47PM 40.0697 -104.8325 270° West 394 453 38,000  Level Denver Center
06:48PM 40.0714 -104.9725 271° West 391 450 38,000  Level Denver Center
06:49PM 40.0736 -105.1142 271° West 393 452 38,000  Level Denver Center
06:50PM 40.0747 -105.2617 271° West 405 466 38,000  Level Denver Center
06:51PM 40.0764 -105.4378 271° West 407 468 38,000  Level Denver Center
06:52PM 40.0767 -105.6047 270° West 389 448 38,000  Level Denver Center
06:53PM 40.0775 -105.7386 271° West 376 433 38,000  Level Denver Center
06:54PM 40.0786 -105.8661 271° West 361 415 38,000  Level Denver Center
06:55PM 40.0789 -105.9981 270° West 363 418 38,000  Level Denver Center
06:56PM 40.0775 -106.1625 269° West 376 433 38,000  Level Denver Center
06:57PM 40.0778 -106.3014 270° West 384 442 38,000  Level Denver Center
06:58PM 40.0789 -106.4411 271° West 386 444 38,000  Level Denver Center
06:59PM 40.0794 -106.5997 270° West 393 452 38,000  Level Denver Center
07:00PM 40.0781 -106.7367 269° West 394 453 38,000  Level Denver Center
07:01PM 40.0786 -106.8942 270° West 391 450 38,000  Level Denver Center
07:02PM 40.0769 -107.0297 269° West 391 450 38,000  Level Denver Center
07:03PM 40.0758 -107.1897 270° West 393 452 38,000  Level Denver Center
07:04PM 40.0753 -107.3239 270° West 389 448 38,000  Level Denver Center
07:05PM 40.0744 -107.4567 270° West 386 444 38,000  Level Denver Center
07:07PM 40.0717 -107.6322 269° West 381 438 38,000  Level Denver Center
07:08PM 40.0700 -107.7844 269° West 378 435 38,000  Level Denver Center
07:09PM 40.0672 -107.9147 268° West 376 433 38,000  Level Denver Center
07:10PM 40.0736 -108.0664 273° West 376 433 38,000  Level Denver Center
07:11PM 40.0806 -108.1961 274° West 378 435 38,000  Level Denver Center
07:12PM 40.0864 -108.3481 273° West 376 433 38,000  Level Denver Center
07:13PM 40.0919 -108.4786 273° West 378 435 38,000 -480 Level Denver Center
07:14PM 40.0983 -108.6314 273° West 380 437 37,100 -840 Descending Denver Center
07:15PM 40.1033 -108.7581 273° West 371 427 36,300 -540 Descending Denver Center
07:16PM 40.1083 -108.9036 273° West 362 417 36,000 -180 Descending Denver Center
07:17PM 40.1131 -109.0242 273° West 353 406 36,000  Level Denver Center
07:18PM 40.1189 -109.1703 273° West 359 413 36,000  Level Denver Center
07:19PM 40.1222 -109.2547 273° West 362 417 36,000  Level Salt Lake Center
07:20PM 40.1261 -109.3822 272° West 367 422 36,000  Level Salt Lake Center
07:21PM 40.1300 -109.5103 272° West 369 425 36,000 -240 Level Salt Lake Center
07:22PM 40.1344 -109.6575 272° West 365 420 35,600 -1,020 Descending Salt Lake Center
07:23PM 40.1389 -109.7808 273° West 358 412 33,900 -1,860 Descending Salt Lake Center
07:24PM 40.1436 -109.9211 273° West 349 402 31,800 -1,860 Descending Salt Lake Center
07:25PM 40.1472 -110.0417 272° West 347 399 30,100 -900 Descending Salt Lake Center
07:26PM 40.1494 -110.1811 271° West 345 397 30,000 -60 Descending Salt Lake Center
07:27PM 40.1472 -110.3025 269° West 348 400 30,000  Level Salt Lake Center
07:28PM 40.1461 -110.4436 269° West 347 399 30,000  Level Salt Lake Center
07:29PM 40.1458 -110.5656 270° West 349 402 30,000  Level Salt Lake Center
07:30PM 40.1439 -110.6867 269° West 349 402 30,000 -600 Level Salt Lake Center
07:31PM 40.1422 -110.8139 269° West 316 364 28,800 -1,500 Descending Salt Lake Center
07:32PM 40.1411 -110.9161 269° West 298 343 27,000 -1,920 Descending Salt Lake Center
07:33PM 40.1400 -111.0342 269° West 296 341 24,900 -2,040 Descending Salt Lake Center
07:34PM 40.1392 -111.1422 269° West 299 344 22,900 -1,980 Descending Salt Lake Center
07:35PM 40.1372 -111.2508 269° West 298 343 20,900 -1,920 Descending Salt Lake Center
07:36PM 40.1331 -111.3625 267° West 305 351 19,000 -1,800 Descending Salt Lake Center
07:37PM 40.1317 -111.4747 269° West 309 356 17,200 -1,920 Descending Salt Lake Center
07:37PM 40.1281 -111.5061 261° West 308 354 16,800 -1,320 Descending Salt Lake Center
07:38PM 40.1417 -111.5942 281° West 276 318 16,000 -840 Descending Salt Lake Center
07:38PM 40.1417 -111.5778 90° East 289 333 16,100 -1,140 Climbing Salt Lake Center
07:39PM 40.1708 -111.6742 292° West 271 312 15,000 -1,380 Descending Salt Lake Center
07:39PM 40.1808 -111.6856 319° Northwest 270 311 14,700 -900 Descending Salt Lake Center
07:40PM 40.2158 -111.7600 302° West 264 304 14,000 -900 Descending Salt Lake Center
07:40PM 40.2256 -111.7617 353° North 266 306 13,800 -1,740 Descending Salt Lake Center
07:41PM 40.2869 -111.8150 326° Northwest 267 307 12,000 -1,500 Descending Salt Lake Center
07:42PM 40.3547 -111.8686 329° Northwest 284 327 10,700 -1,320 Descending Salt Lake Center
07:42PM 40.3583 -111.8803 292° West 285 328 10,600 -660 Descending Salt Lake Center
07:43PM 40.4214 -111.9264 331° Northwest 280 322 10,100 -540 Descending Salt Lake Center
07:43PM 40.4217 -111.9217 86° East 280 322 10,100  Level Salt Lake Center
07:44PM 40.4833 -111.9397 347° North 222 255 10,100 -120 Level Salt Lake Center
07:44PM 40.4919 -111.9450 335° Northwest 216 249 10,000 -1,500 Descending Salt Lake Center
07:45PM 40.5556 -111.9514 356° North 228 262 8,600 -1,200 Descending Salt Lake Center
07:46PM 40.6069 -111.9539 358° North 218 251 7,600 -1,140 Descending Salt Lake Center
07:47PM 40.6719 -111.9628 354° North 206 237 6,300 -1,260 Descending Salt Lake Center
07:47PM 40.6764 -111.9611 16° North 209 241 6,300 -900 Level Salt Lake Center
07:48PM 40.7206 -111.9689 352° North 150 173 5,400 -900 Descending Salt Lake Center
07:48PM 40.7219 -111.9667 50° Northeast 168 193 5,400 -780 Level Salt Lake Center
07:49PM 40.7619 -111.9714 355° North 147 169 4,600 -540 Descending Salt Lake Center
07:50PM 40.7947 -111.9744 356° North 124 143 4,300 -300 Descending Salt Lake Center
07:52PM 40.7833 -111.9667 North  Level FlightAware Approximate